createdAt,value
2022-09-27T00:00:33.972Z,94059
2022-09-27T00:01:43.715Z,94059
2022-09-27T00:02:53.415Z,94056
2022-09-27T00:04:02.034Z,94053
2022-09-27T00:05:10.683Z,94052
2022-09-27T00:06:20.383Z,94053
2022-09-27T00:07:29.014Z,94048
2022-09-27T00:08:38.713Z,94049
2022-09-27T00:09:47.379Z,94045
2022-09-27T00:10:56.096Z,94046
2022-09-27T00:12:05.757Z,94043
2022-09-27T00:13:13.408Z,94048
2022-09-27T00:14:23.085Z,94045
2022-09-27T00:15:32.875Z,94044
2022-09-27T00:16:40.442Z,94043
2022-09-27T00:17:49.134Z,94039
2022-09-27T00:18:57.816Z,94041
2022-09-27T00:20:07.489Z,94037
2022-09-27T00:21:17.199Z,94038
2022-09-27T00:22:26.864Z,94028
2022-09-27T00:23:36.522Z,94024
2022-09-27T00:24:46.207Z,94021
2022-09-27T00:25:55.911Z,94014
2022-09-27T00:27:04.623Z,94018
2022-09-27T00:28:14.263Z,94013
2022-09-27T00:29:23.975Z,94015
2022-09-27T00:30:33.641Z,94017
2022-09-27T00:31:42.344Z,94015
2022-09-27T00:32:51.025Z,94014
2022-09-27T00:34:00.705Z,94017
2022-09-27T00:35:10.395Z,94017
2022-09-27T00:36:19.064Z,94020
2022-09-27T00:37:28.767Z,94020
2022-09-27T00:38:36.429Z,94020
2022-09-27T00:39:46.081Z,94024
2022-09-27T00:40:55.853Z,94023
2022-09-27T00:42:05.455Z,94029
2022-09-27T00:43:14.233Z,94030
2022-09-27T00:44:23.889Z,94029
2022-09-27T00:45:31.558Z,94030
2022-09-27T00:46:41.314Z,94031
2022-09-27T00:47:49.920Z,94029
2022-09-27T00:48:58.738Z,94030
2022-09-27T00:50:08.412Z,94023
2022-09-27T00:51:16.070Z,94024
2022-09-27T00:52:24.723Z,94019
2022-09-27T00:53:33.387Z,94022
2022-09-27T00:54:42.064Z,94020
2022-09-27T00:55:50.754Z,94017
2022-09-27T00:56:58.415Z,94019
2022-09-27T00:58:07.104Z,94020
2022-09-27T00:59:16.913Z,94018
2022-09-27T01:00:25.455Z,94020
2022-09-27T01:01:34.229Z,94020
2022-09-27T01:02:43.018Z,94018
2022-09-27T01:03:51.480Z,94016
2022-09-27T01:05:01.168Z,94017
2022-09-27T01:06:09.867Z,94011
2022-09-27T01:07:18.573Z,94017
2022-09-27T01:08:28.210Z,94016
2022-09-27T01:09:36.868Z,94014
2022-09-27T01:10:45.531Z,94014
2022-09-27T01:11:54.378Z,94012
2022-09-27T01:13:03.047Z,94005
2022-09-27T01:14:12.728Z,94013
2022-09-27T01:15:21.424Z,94013
2022-09-27T01:16:31.095Z,94012
2022-09-27T01:17:40.803Z,94000
2022-09-27T01:18:49.503Z,93997
2022-09-27T01:19:58.175Z,93998
2022-09-27T01:21:07.874Z,93997
2022-09-27T01:22:16.535Z,93997
2022-09-27T01:23:26.250Z,93997
2022-09-27T01:24:33.949Z,93995
2022-09-27T01:25:43.613Z,93991
2022-09-27T01:26:53.302Z,93987
2022-09-27T01:28:00.946Z,93982
2022-09-27T01:29:11.633Z,93985
2022-09-27T01:30:21.373Z,93987
2022-09-27T01:31:31.077Z,93982
2022-09-27T01:32:41.699Z,93985
2022-09-27T01:33:49.376Z,93983
2022-09-27T01:34:59.082Z,93986
2022-09-27T01:36:08.780Z,93979
2022-09-27T01:37:16.446Z,93977
2022-09-27T01:38:25.165Z,93975
2022-09-27T01:39:33.826Z,93975
2022-09-27T01:40:43.562Z,93969
2022-09-27T01:41:53.190Z,93968
2022-09-27T01:43:00.841Z,93971
2022-09-27T01:44:09.491Z,93972
2022-09-27T01:45:19.164Z,93965
2022-09-27T01:46:28.909Z,93966
2022-09-27T01:47:37.549Z,93963
2022-09-27T01:48:47.239Z,93966
2022-09-27T01:49:56.924Z,93968
2022-09-27T01:51:06.603Z,93972
2022-09-27T01:52:14.430Z,93971
2022-09-27T01:53:24.077Z,93970
2022-09-27T01:54:33.772Z,93975
2022-09-27T01:55:41.440Z,93969
2022-09-27T01:56:50.191Z,93965
2022-09-27T01:57:58.894Z,93968
2022-09-27T01:59:08.622Z,93965
2022-09-27T02:00:18.282Z,93968
2022-09-27T02:01:27.051Z,93974
2022-09-27T02:02:35.741Z,93973
2022-09-27T02:03:45.424Z,93974
2022-09-27T02:04:54.057Z,93975
2022-09-27T02:06:03.764Z,93969
2022-09-27T02:07:12.445Z,93967
2022-09-27T02:08:22.101Z,93962
2022-09-27T02:09:31.806Z,93965
2022-09-27T02:10:40.554Z,93964
2022-09-27T02:11:54.061Z,93969
2022-09-27T02:12:59.894Z,93963
2022-09-27T02:14:07.579Z,93962
2022-09-27T02:15:16.366Z,93960
2022-09-27T02:16:26.119Z,93957
2022-09-27T02:17:35.762Z,93953
2022-09-27T02:18:45.468Z,93957
2022-09-27T02:19:53.245Z,93959
2022-09-27T02:21:02.899Z,93950
2022-09-27T02:22:12.592Z,93950
2022-09-27T02:23:21.274Z,93948
2022-09-27T02:24:30.955Z,93954
2022-09-27T02:25:39.635Z,93947
2022-09-27T02:26:48.335Z,93947
2022-09-27T02:27:58.003Z,93943
2022-09-27T02:29:07.678Z,93945
2022-09-27T02:30:16.369Z,93946
2022-09-27T02:31:25.043Z,93952
2022-09-27T02:32:33.727Z,93949
2022-09-27T02:33:42.369Z,93949
2022-09-27T02:34:52.053Z,93950
2022-09-27T02:36:01.772Z,93943
2022-09-27T02:37:11.436Z,93947
2022-09-27T02:38:21.138Z,93950
2022-09-27T02:39:28.845Z,93946
2022-09-27T02:40:38.567Z,93951
2022-09-27T02:41:48.212Z,93952
2022-09-27T02:42:56.870Z,93951
2022-09-27T02:44:05.579Z,93953
2022-09-27T02:45:14.247Z,93950
2022-09-27T02:46:22.945Z,93934
2022-09-27T02:47:32.574Z,93930
2022-09-27T02:48:42.272Z,93929
2022-09-27T02:49:50.992Z,93932
2022-09-27T02:50:59.679Z,93928
2022-09-27T02:52:08.547Z,93928
2022-09-27T02:53:18.247Z,93937
2022-09-27T02:54:26.906Z,93938
2022-09-27T02:55:36.734Z,93936
2022-09-27T02:56:46.422Z,93939
2022-09-27T02:57:54.170Z,93939
2022-09-27T02:59:03.971Z,93932
2022-09-27T03:00:12.679Z,93921
2022-09-27T03:01:21.419Z,93929
2022-09-27T03:02:31.138Z,93921
2022-09-27T03:03:38.753Z,93916
2022-09-27T03:04:48.396Z,93918
2022-09-27T03:05:58.071Z,93915
2022-09-27T03:07:07.790Z,93910
2022-09-27T03:08:16.447Z,93902
2022-09-27T03:09:26.088Z,93903
2022-09-27T03:10:35.772Z,93895
2022-09-27T03:11:44.446Z,93899
2022-09-27T03:12:52.126Z,93898
2022-09-27T03:14:08.598Z,93900
2022-09-27T03:15:12.462Z,93902
2022-09-27T03:16:20.222Z,93900
2022-09-27T03:17:29.975Z,93904
2022-09-27T03:18:39.832Z,93904
2022-09-27T03:19:48.489Z,93906
2022-09-27T03:20:58.205Z,93901
2022-09-27T03:22:06.876Z,93905
2022-09-27T03:23:15.560Z,93903
2022-09-27T03:24:25.290Z,93900
2022-09-27T03:25:33.933Z,93900
2022-09-27T03:26:43.618Z,93899
2022-09-27T03:27:52.309Z,93894
2022-09-27T03:29:01.008Z,93894
2022-09-27T03:30:09.840Z,93887
2022-09-27T03:31:18.599Z,93889
2022-09-27T03:32:28.242Z,93886
2022-09-27T03:33:37.899Z,93882
2022-09-27T03:34:45.570Z,93884
2022-09-27T03:35:54.267Z,93883
2022-09-27T03:37:03.975Z,93883
2022-09-27T03:38:13.611Z,93876
2022-09-27T03:39:23.270Z,93880
2022-09-27T03:40:33.110Z,93884
2022-09-27T03:41:41.742Z,93880
2022-09-27T03:42:51.410Z,93884
2022-09-27T03:43:59.074Z,93881
2022-09-27T03:45:07.761Z,93878
2022-09-27T03:46:16.481Z,93875
2022-09-27T03:47:25.103Z,93871
2022-09-27T03:48:34.767Z,93872
2022-09-27T03:49:42.438Z,93872
2022-09-27T03:50:52.169Z,93870
2022-09-27T03:52:01.870Z,93867
2022-09-27T03:53:10.545Z,93864
2022-09-27T03:54:20.257Z,93864
2022-09-27T03:55:29.919Z,93863
2022-09-27T03:56:38.601Z,93859
2022-09-27T03:57:48.242Z,93858
2022-09-27T03:58:57.074Z,93859
2022-09-27T04:00:06.800Z,93861
2022-09-27T04:01:16.520Z,93866
2022-09-27T04:02:24.185Z,93866
2022-09-27T04:03:32.833Z,93863
2022-09-27T04:04:41.559Z,93866
2022-09-27T04:05:50.237Z,93867
2022-09-27T04:06:59.922Z,93868
2022-09-27T04:08:07.601Z,93869
2022-09-27T04:09:16.483Z,93869
2022-09-27T04:10:26.090Z,93869
2022-09-27T04:11:35.769Z,93871
2022-09-27T04:12:44.458Z,93869
2022-09-27T04:13:54.111Z,93865
2022-09-27T04:15:03.895Z,93862
2022-09-27T04:16:13.619Z,93861
2022-09-27T04:17:22.294Z,93861
2022-09-27T04:18:31.949Z,93863
2022-09-27T04:19:41.637Z,93866
2022-09-27T04:20:50.331Z,93869
2022-09-27T04:21:59.083Z,93867
2022-09-27T04:23:07.737Z,93869
2022-09-27T04:24:17.443Z,93874
2022-09-27T04:25:27.197Z,93870
2022-09-27T04:26:34.993Z,93869
2022-09-27T04:27:44.751Z,93870
2022-09-27T04:28:55.037Z,93873
2022-09-27T04:30:04.101Z,93876
2022-09-27T04:31:12.829Z,93877
2022-09-27T04:32:22.507Z,93876
2022-09-27T04:33:31.215Z,93872
2022-09-27T04:34:44.677Z,93871
2022-09-27T04:35:49.598Z,93871
2022-09-27T04:36:58.261Z,93867
2022-09-27T04:38:06.914Z,93865
2022-09-27T04:39:15.756Z,93865
2022-09-27T04:40:24.289Z,93867
2022-09-27T04:41:33.982Z,93870
2022-09-27T04:42:43.062Z,93866
2022-09-27T04:43:56.693Z,93874
2022-09-27T04:45:02.811Z,93868
2022-09-27T04:46:11.500Z,93870
2022-09-27T04:47:19.136Z,93878
2022-09-27T04:48:27.820Z,93878
2022-09-27T04:49:37.485Z,93876
2022-09-27T04:50:47.242Z,93876
2022-09-27T04:51:54.902Z,93877
2022-09-27T04:53:04.596Z,93882
2022-09-27T04:54:14.310Z,93879
2022-09-27T04:55:21.976Z,93882
2022-09-27T04:56:30.678Z,93884
2022-09-27T04:57:40.442Z,93886
2022-09-27T04:58:49.138Z,93883
2022-09-27T04:59:58.816Z,93879
2022-09-27T05:01:07.528Z,93884
2022-09-27T05:02:16.178Z,93887
2022-09-27T05:03:25.793Z,93886
2022-09-27T05:04:33.430Z,93884
2022-09-27T05:05:42.169Z,93883
2022-09-27T05:06:54.969Z,93888
2022-09-27T05:08:00.505Z,93880
2022-09-27T05:09:10.298Z,93877
2022-09-27T05:10:17.926Z,93879
2022-09-27T05:11:27.603Z,93881
2022-09-27T05:12:38.272Z,93883
2022-09-27T05:13:45.960Z,93887
2022-09-27T05:14:54.653Z,93889
2022-09-27T05:16:03.313Z,93888
2022-09-27T05:17:12.041Z,93886
2022-09-27T05:18:21.677Z,93893
2022-09-27T05:19:30.482Z,93889
2022-09-27T05:20:40.133Z,93900
2022-09-27T05:21:49.830Z,93902
2022-09-27T05:22:58.503Z,93905
2022-09-27T05:24:08.240Z,93909
2022-09-27T05:25:16.963Z,93907
2022-09-27T05:26:26.617Z,93918
2022-09-27T05:27:36.341Z,93915
2022-09-27T05:28:44.984Z,93923
2022-09-27T05:29:53.718Z,93916
2022-09-27T05:31:03.478Z,93917
2022-09-27T05:32:13.112Z,93916
2022-09-27T05:33:21.853Z,93920
2022-09-27T05:34:31.489Z,93925
2022-09-27T05:35:44.586Z,93917
2022-09-27T05:36:49.868Z,93918
2022-09-27T05:37:58.552Z,93920
2022-09-27T05:39:08.259Z,93925
2022-09-27T05:40:36.998Z,93916
2022-09-27T05:41:28.750Z,93923
2022-09-27T05:42:37.263Z,93928
2022-09-27T05:43:45.978Z,93924
2022-09-27T05:44:55.650Z,93930
2022-09-27T05:46:05.472Z,93927
2022-09-27T05:47:13.024Z,93926
2022-09-27T05:48:22.747Z,93925
2022-09-27T05:49:32.573Z,93942
2022-09-27T05:50:41.241Z,93935
2022-09-27T05:51:49.947Z,93940
2022-09-27T05:52:58.642Z,93937
2022-09-27T05:54:07.548Z,93941
2022-09-27T05:55:17.212Z,93936
2022-09-27T05:56:24.896Z,93933
2022-09-27T05:57:34.641Z,93936
2022-09-27T05:58:44.380Z,93935
2022-09-27T05:59:52.144Z,93937
2022-09-27T06:01:01.856Z,93936
2022-09-27T06:02:10.641Z,93933
2022-09-27T06:03:19.219Z,93934
2022-09-27T06:04:28.925Z,93941
2022-09-27T06:05:38.723Z,93941
2022-09-27T06:06:48.407Z,93939
2022-09-27T06:07:58.067Z,93941
2022-09-27T06:09:06.794Z,93948
2022-09-27T06:10:15.469Z,93940
2022-09-27T06:11:24.264Z,93934
2022-09-27T06:12:33.963Z,93938
2022-09-27T06:13:43.712Z,93938
2022-09-27T06:14:52.441Z,93938
2022-09-27T06:16:01.080Z,93941
2022-09-27T06:17:10.818Z,93949
2022-09-27T06:18:20.489Z,93951
2022-09-27T06:19:29.204Z,93948
2022-09-27T06:20:38.917Z,93950
2022-09-27T06:21:47.598Z,93943
2022-09-27T06:22:57.247Z,93950
2022-09-27T06:24:06.907Z,93966
2022-09-27T06:25:16.662Z,93958
2022-09-27T06:26:26.394Z,93966
2022-09-27T06:27:36.261Z,93962
2022-09-27T06:28:45.950Z,93961
2022-09-27T06:29:55.663Z,93971
2022-09-27T06:31:03.428Z,93967
2022-09-27T06:32:12.061Z,93969
2022-09-27T06:33:21.763Z,93979
2022-09-27T06:34:29.479Z,93972
2022-09-27T06:35:38.190Z,93972
2022-09-27T06:36:48.176Z,93978
2022-09-27T06:37:55.538Z,93980
2022-09-27T06:39:05.222Z,93982
2022-09-27T06:40:13.945Z,93981
2022-09-27T06:41:23.624Z,93981
2022-09-27T06:42:33.303Z,93980
2022-09-27T06:43:41.965Z,93989
2022-09-27T06:44:51.651Z,93978
2022-09-27T06:46:01.422Z,93985
2022-09-27T06:47:10.018Z,93989
2022-09-27T06:48:19.718Z,93991
2022-09-27T06:49:29.427Z,93994
2022-09-27T06:50:38.096Z,93989
2022-09-27T06:51:47.828Z,93989
2022-09-27T06:52:57.524Z,93994
2022-09-27T06:54:07.262Z,93993
2022-09-27T06:55:16.935Z,93992
2022-09-27T06:56:25.589Z,93991
2022-09-27T06:57:35.296Z,93995
2022-09-27T06:58:42.970Z,93995
2022-09-27T06:59:51.688Z,93990
2022-09-27T07:01:01.417Z,93993
2022-09-27T07:02:09.074Z,93994
2022-09-27T07:03:17.721Z,93999
2022-09-27T07:04:26.401Z,94003
2022-09-27T07:05:35.106Z,94006
2022-09-27T07:06:44.813Z,94016
2022-09-27T07:07:54.584Z,94027
2022-09-27T07:09:04.402Z,94029
2022-09-27T07:10:14.092Z,94040
2022-09-27T07:11:21.769Z,94032
2022-09-27T07:12:31.472Z,94027
2022-09-27T07:13:41.132Z,94039
2022-09-27T07:14:49.858Z,94035
2022-09-27T07:15:59.559Z,94024
2022-09-27T07:17:07.261Z,94022
2022-09-27T07:18:15.924Z,94028
2022-09-27T07:19:25.610Z,94021
2022-09-27T07:20:34.306Z,94030
2022-09-27T07:21:43.014Z,94021
2022-09-27T07:22:51.815Z,94015
2022-09-27T07:24:00.508Z,94011
2022-09-27T07:25:10.208Z,94024
2022-09-27T07:26:19.047Z,94010
2022-09-27T07:27:28.805Z,94011
2022-09-27T07:28:39.529Z,94011
2022-09-27T07:29:49.238Z,94016
2022-09-27T07:30:58.041Z,94013
2022-09-27T07:32:06.700Z,94012
2022-09-27T07:33:15.376Z,94016
2022-09-27T07:34:25.128Z,94014
2022-09-27T07:35:32.805Z,94014
2022-09-27T07:36:41.451Z,94014
2022-09-27T07:37:51.180Z,94016
2022-09-27T07:38:59.860Z,94011
2022-09-27T07:40:08.536Z,94013
2022-09-27T07:41:16.257Z,94015
2022-09-27T07:42:24.999Z,94020
2022-09-27T07:43:34.785Z,94016
2022-09-27T07:44:44.542Z,94018
2022-09-27T07:45:54.241Z,94024
2022-09-27T07:47:03.924Z,94026
2022-09-27T07:48:11.805Z,94022
2022-09-27T07:49:20.721Z,94022
2022-09-27T07:50:30.522Z,94027
2022-09-27T07:51:39.278Z,94017
2022-09-27T07:52:49.008Z,94018
2022-09-27T07:53:58.739Z,94021
2022-09-27T07:55:09.500Z,94028
2022-09-27T07:56:19.402Z,94028
2022-09-27T07:57:28.111Z,94032
2022-09-27T07:58:37.794Z,94026
2022-09-27T07:59:46.497Z,94032
2022-09-27T08:00:56.284Z,94029
2022-09-27T08:02:05.962Z,94024
2022-09-27T08:03:14.618Z,94022
2022-09-27T08:04:24.314Z,94038
2022-09-27T08:05:34.012Z,94038
2022-09-27T08:06:41.710Z,94036
2022-09-27T08:07:51.435Z,94029
2022-09-27T08:09:01.127Z,94045
2022-09-27T08:10:09.920Z,94027
2022-09-27T08:11:19.745Z,94039
2022-09-27T08:12:28.475Z,94043
2022-09-27T08:13:37.212Z,94042
2022-09-27T08:14:48.334Z,94034
2022-09-27T08:15:55.716Z,94047
2022-09-27T08:17:05.393Z,94048
2022-09-27T08:18:15.188Z,94046
2022-09-27T08:19:23.922Z,94059
2022-09-27T08:20:33.626Z,94074
2022-09-27T08:21:42.410Z,94080
2022-09-27T08:22:51.221Z,94087
2022-09-27T08:23:59.960Z,94087
2022-09-27T08:25:08.707Z,94089
2022-09-27T08:26:18.414Z,94104
2022-09-27T08:27:28.165Z,94103
2022-09-27T08:28:36.871Z,94091
2022-09-27T08:29:46.757Z,94104
2022-09-27T08:30:56.430Z,94102
2022-09-27T08:32:04.134Z,94101
2022-09-27T08:33:12.823Z,94100
2022-09-27T08:34:21.528Z,94107
2022-09-27T08:35:30.380Z,94110
2022-09-27T08:36:40.115Z,94111
2022-09-27T08:37:49.815Z,94113
2022-09-27T08:38:59.619Z,94111
2022-09-27T08:40:09.370Z,94122
2022-09-27T08:41:19.163Z,94116
2022-09-27T08:42:27.864Z,94124
2022-09-27T08:43:36.550Z,94128
2022-09-27T08:44:46.252Z,94122
2022-09-27T08:45:56.083Z,94128
2022-09-27T08:47:05.680Z,94132
2022-09-27T08:48:15.375Z,94141
2022-09-27T08:49:25.052Z,94121
2022-09-27T08:50:38.930Z,94125
2022-09-27T08:51:44.666Z,94121
2022-09-27T08:52:54.385Z,94127
2022-09-27T08:54:03.059Z,94119
2022-09-27T08:55:12.779Z,94118
2022-09-27T08:56:22.466Z,94123
2022-09-27T08:57:31.183Z,94116
2022-09-27T08:58:40.880Z,94122
2022-09-27T08:59:50.689Z,94116
2022-09-27T09:00:59.458Z,94127
2022-09-27T09:02:09.161Z,94124
2022-09-27T09:03:17.796Z,94119
2022-09-27T09:04:26.507Z,94126
2022-09-27T09:05:34.197Z,94114
2022-09-27T09:06:42.962Z,94121
2022-09-27T09:07:52.697Z,94123
2022-09-27T09:09:01.397Z,94125
2022-09-27T09:10:11.083Z,94127
2022-09-27T09:11:20.784Z,94114
2022-09-27T09:12:29.493Z,94120
2022-09-27T09:13:39.214Z,94123
2022-09-27T09:14:49.016Z,94111
2022-09-27T09:15:58.952Z,94129
2022-09-27T09:17:08.732Z,94112
2022-09-27T09:18:18.488Z,94116
2022-09-27T09:19:27.250Z,94115
2022-09-27T09:20:37.029Z,94119
2022-09-27T09:21:45.767Z,94118
2022-09-27T09:22:55.473Z,94127
2022-09-27T09:24:03.221Z,94112
2022-09-27T09:25:11.919Z,94122
2022-09-27T09:26:21.607Z,94119
2022-09-27T09:27:30.355Z,94114
2022-09-27T09:28:39.083Z,94107
2022-09-27T09:29:47.844Z,94110
2022-09-27T09:30:56.559Z,94124
2022-09-27T09:32:06.323Z,94122
2022-09-27T09:33:16.588Z,94113
2022-09-27T09:34:24.669Z,94110
2022-09-27T09:35:34.372Z,94108
2022-09-27T09:36:42.043Z,94113
2022-09-27T09:37:51.813Z,94116
2022-09-27T09:39:01.638Z,94124
2022-09-27T09:40:11.367Z,94121
2022-09-27T09:41:21.089Z,94122
2022-09-27T09:42:29.879Z,94121
2022-09-27T09:43:38.661Z,94132
2022-09-27T09:44:48.398Z,94128
2022-09-27T09:45:56.079Z,94125
2022-09-27T09:47:04.768Z,94126
2022-09-27T09:48:14.446Z,94124
2022-09-27T09:49:23.139Z,94128
2022-09-27T09:50:32.840Z,94131
2022-09-27T09:51:42.563Z,94127
2022-09-27T09:52:51.219Z,94131
2022-09-27T09:54:00.975Z,94121
2022-09-27T09:55:08.709Z,94147
2022-09-27T09:56:18.390Z,94129
2022-09-27T09:57:27.217Z,94120
2022-09-27T09:58:35.931Z,94132
2022-09-27T09:59:45.636Z,94119
2022-09-27T10:00:55.396Z,94133
2022-09-27T10:02:05.158Z,94130
2022-09-27T10:03:14.926Z,94135
2022-09-27T10:04:24.640Z,94138
2022-09-27T10:05:34.408Z,94130
2022-09-27T10:06:44.119Z,94134
2022-09-27T10:07:52.839Z,94162
2022-09-27T10:09:02.560Z,94146
2022-09-27T10:10:13.294Z,94149
2022-09-27T10:11:23.015Z,94143
2022-09-27T10:12:32.742Z,94148
2022-09-27T10:13:40.445Z,94151
2022-09-27T10:14:49.271Z,94151
2022-09-27T10:15:57.980Z,94147
2022-09-27T10:17:07.613Z,94150
2022-09-27T10:18:17.348Z,94143
2022-09-27T10:19:26.098Z,94155
2022-09-27T10:20:35.842Z,94153
2022-09-27T10:21:45.524Z,94163
2022-09-27T10:22:54.284Z,94157
2022-09-27T10:24:03.950Z,94163
2022-09-27T10:25:14.738Z,94161
2022-09-27T10:26:23.449Z,94168
2022-09-27T10:27:33.163Z,94158
2022-09-27T10:28:42.839Z,94162
2022-09-27T10:29:51.591Z,94164
2022-09-27T10:31:01.335Z,94164
2022-09-27T10:32:11.018Z,94164
2022-09-27T10:33:20.695Z,94168
2022-09-27T10:34:30.423Z,94168
2022-09-27T10:35:39.221Z,94171
2022-09-27T10:36:48.027Z,94173
2022-09-27T10:37:57.722Z,94171
2022-09-27T10:39:05.449Z,94169
2022-09-27T10:40:14.192Z,94180
2022-09-27T10:41:22.864Z,94186
2022-09-27T10:42:32.619Z,94179
2022-09-27T10:43:42.389Z,94178
2022-09-27T10:44:51.075Z,94183
2022-09-27T10:45:59.802Z,94188
2022-09-27T10:47:09.499Z,94186
2022-09-27T10:48:18.257Z,94189
2022-09-27T10:49:27.983Z,94200
2022-09-27T10:50:55.774Z,94199
2022-09-27T10:51:48.424Z,94194
2022-09-27T10:52:58.079Z,94204
2022-09-27T10:54:06.835Z,94197
2022-09-27T10:55:15.535Z,94201
2022-09-27T10:56:25.250Z,94189
2022-09-27T10:57:32.937Z,94189
2022-09-27T10:58:43.684Z,94185
2022-09-27T10:59:52.407Z,94189
2022-09-27T11:01:01.176Z,94177
2022-09-27T11:02:10.799Z,94176
2022-09-27T11:03:19.511Z,94171
2022-09-27T11:04:28.232Z,94186
2022-09-27T11:05:36.981Z,94183
2022-09-27T11:06:44.770Z,94180
2022-09-27T11:07:53.505Z,94186
2022-09-27T11:09:03.206Z,94183
2022-09-27T11:10:11.886Z,94181
2022-09-27T11:11:21.673Z,94185
2022-09-27T11:12:31.330Z,94183
2022-09-27T11:13:40.004Z,94179
2022-09-27T11:14:49.683Z,94178
2022-09-27T11:15:58.494Z,94178
2022-09-27T11:17:07.204Z,94180
2022-09-27T11:18:15.908Z,94186
2022-09-27T11:19:25.681Z,94192
2022-09-27T11:20:34.452Z,94189
2022-09-27T11:21:42.171Z,94175
2022-09-27T11:22:52.043Z,94184
2022-09-27T11:24:02.765Z,94171
2022-09-27T11:25:11.429Z,94184
2022-09-27T11:26:20.185Z,94179
2022-09-27T11:27:28.918Z,94174
2022-09-27T11:28:37.671Z,94175
2022-09-27T11:29:47.395Z,94171
2022-09-27T11:30:56.097Z,94178
2022-09-27T11:32:04.823Z,94182
2022-09-27T11:33:13.534Z,94167
2022-09-27T11:34:22.316Z,94171
2022-09-27T11:35:32.044Z,94167
2022-09-27T11:36:40.837Z,94173
2022-09-27T11:37:49.547Z,94182
2022-09-27T11:39:02.421Z,94176
2022-09-27T11:40:09.177Z,94171
2022-09-27T11:41:18.801Z,94171
2022-09-27T11:42:28.564Z,94180
2022-09-27T11:43:38.242Z,94174
2022-09-27T11:44:48.003Z,94172
2022-09-27T11:46:29.175Z,94170
2022-09-27T11:47:09.464Z,94166
2022-09-27T11:48:19.070Z,94180
2022-09-27T11:49:27.890Z,94170
2022-09-27T11:50:36.560Z,94163
2022-09-27T11:51:46.572Z,94192
2022-09-27T11:52:55.256Z,94170
2022-09-27T11:54:03.930Z,94167
2022-09-27T11:55:13.706Z,94155
2022-09-27T11:56:23.294Z,94152
2022-09-27T11:57:33.019Z,94157
2022-09-27T11:58:41.715Z,94165
2022-09-27T11:59:50.399Z,94146
2022-09-27T12:01:00.082Z,94152
2022-09-27T12:02:08.913Z,94145
2022-09-27T12:03:18.461Z,94145
2022-09-27T12:04:28.200Z,94142
2022-09-27T12:05:36.872Z,94140
2022-09-27T12:06:46.582Z,94132
2022-09-27T12:07:56.312Z,94150
2022-09-27T12:09:05.058Z,94141
2022-09-27T12:10:14.790Z,94145
2022-09-27T12:11:24.530Z,94143
2022-09-27T12:12:34.247Z,94138
2022-09-27T12:13:42.940Z,94130
2022-09-27T12:14:51.618Z,94141
2022-09-27T12:16:02.352Z,94139
2022-09-27T12:17:11.053Z,94134
2022-09-27T12:18:19.739Z,94129
2022-09-27T12:19:28.475Z,94136
2022-09-27T12:20:37.343Z,94128
2022-09-27T12:21:47.027Z,94126
2022-09-27T12:22:59.436Z,94129
2022-09-27T12:24:06.390Z,94118
2022-09-27T12:25:20.447Z,94111
2022-09-27T12:26:26.077Z,94114
2022-09-27T12:27:35.861Z,94124
2022-09-27T12:28:44.544Z,94152
2022-09-27T12:29:54.215Z,94145
2022-09-27T12:31:27.299Z,94155
2022-09-27T12:32:14.577Z,94141
2022-09-27T12:33:22.216Z,94143
2022-09-27T12:34:30.911Z,94132
2022-09-27T12:35:40.613Z,94145
2022-09-27T12:36:49.316Z,94149
2022-09-27T12:37:58.001Z,94149
2022-09-27T12:39:06.696Z,94142
2022-09-27T12:40:16.532Z,94140
2022-09-27T12:41:26.091Z,94152
2022-09-27T12:42:34.784Z,94148
2022-09-27T12:43:45.907Z,94147
2022-09-27T12:44:54.127Z,94149
2022-09-27T12:46:02.845Z,94142
2022-09-27T12:47:12.531Z,94144
2022-09-27T12:48:21.208Z,94135
2022-09-27T12:49:29.870Z,94131
2022-09-27T12:50:39.722Z,94137
2022-09-27T12:51:48.398Z,94133
2022-09-27T12:52:58.076Z,94134
2022-09-27T12:54:07.758Z,94129
2022-09-27T12:55:17.447Z,94128
2022-09-27T12:56:26.109Z,94141
2022-09-27T12:57:34.795Z,94126
2022-09-27T12:58:43.572Z,94135
2022-09-27T12:59:53.316Z,94118
2022-09-27T13:01:02.050Z,94127
2022-09-27T13:02:11.776Z,94127
2022-09-27T13:03:25.209Z,94121
2022-09-27T13:04:31.023Z,94123
2022-09-27T13:05:39.695Z,94129
2022-09-27T13:06:49.385Z,94133
2022-09-27T13:07:59.069Z,94124
2022-09-27T13:09:08.737Z,94136
2022-09-27T13:10:17.420Z,94122
2022-09-27T13:11:26.120Z,94134
2022-09-27T13:12:35.822Z,94126
2022-09-27T13:13:43.619Z,94118
2022-09-27T13:14:52.331Z,94116
2022-09-27T13:16:01.112Z,94130
2022-09-27T13:17:09.730Z,94126
2022-09-27T13:18:19.467Z,94138
2022-09-27T13:19:28.123Z,94107
2022-09-27T13:20:37.830Z,94121
2022-09-27T13:21:47.514Z,94127
2022-09-27T13:22:55.215Z,94127
2022-09-27T13:24:03.924Z,94118
2022-09-27T13:25:12.572Z,94133
2022-09-27T13:26:21.252Z,94133
2022-09-27T13:27:30.924Z,94124
2022-09-27T13:28:38.650Z,94134
2022-09-27T13:29:47.458Z,94132
2022-09-27T13:30:57.207Z,94131
2022-09-27T13:32:06.821Z,94137
2022-09-27T13:33:16.513Z,94124
2022-09-27T13:34:25.210Z,94130
2022-09-27T13:35:32.897Z,94128
2022-09-27T13:36:42.682Z,94124
2022-09-27T13:37:51.349Z,94125
2022-09-27T13:39:01.007Z,94124
2022-09-27T13:40:09.688Z,94120
2022-09-27T13:41:18.491Z,94127
2022-09-27T13:42:27.202Z,94126
2022-09-27T13:43:35.866Z,94124
2022-09-27T13:44:45.558Z,94134
2022-09-27T13:45:55.238Z,94122
2022-09-27T13:47:03.976Z,94128
2022-09-27T13:48:13.647Z,94124
2022-09-27T13:49:23.304Z,94142
2022-09-27T13:50:30.969Z,94137
2022-09-27T13:51:39.682Z,94171
2022-09-27T13:52:49.399Z,94129
2022-09-27T13:53:58.047Z,94126
2022-09-27T13:55:08.698Z,94142
2022-09-27T13:56:16.343Z,94135
2022-09-27T13:57:24.281Z,94156
2022-09-27T13:58:33.975Z,94137
2022-09-27T13:59:42.783Z,94142
2022-09-27T14:00:52.485Z,94148
2022-09-27T14:02:02.195Z,94138
2022-09-27T14:03:11.799Z,94136
2022-09-27T14:04:21.530Z,94144
2022-09-27T14:05:30.213Z,94138
2022-09-27T14:06:38.920Z,94147
2022-09-27T14:07:48.572Z,94139
2022-09-27T14:08:57.241Z,94147
2022-09-27T14:10:06.945Z,94145
2022-09-27T14:11:15.616Z,94147
2022-09-27T14:12:24.317Z,94151
2022-09-27T14:13:32.977Z,94141
2022-09-27T14:14:41.624Z,94147
2022-09-27T14:15:50.383Z,94155
2022-09-27T14:17:00.051Z,94154
2022-09-27T14:18:10.685Z,94149
2022-09-27T14:19:20.358Z,94156
2022-09-27T14:20:30.055Z,94148
2022-09-27T14:21:39.781Z,94160
2022-09-27T14:22:48.489Z,94162
2022-09-27T14:23:58.168Z,94152
2022-09-27T14:25:07.873Z,94163
2022-09-27T14:26:16.552Z,94171
2022-09-27T14:27:25.261Z,94166
2022-09-27T14:28:34.006Z,94161
2022-09-27T14:29:43.712Z,94173
2022-09-27T14:30:51.423Z,94157
2022-09-27T14:32:00.050Z,94174
2022-09-27T14:33:09.851Z,94168
2022-09-27T14:34:19.564Z,94160
2022-09-27T14:35:29.289Z,94164
2022-09-27T14:36:38.998Z,94161
2022-09-27T14:37:47.642Z,94158
2022-09-27T14:38:57.372Z,94173
2022-09-27T14:40:07.015Z,94181
2022-09-27T14:41:16.936Z,94168
2022-09-27T14:42:31.349Z,94160
2022-09-27T14:43:39.011Z,94182
2022-09-27T14:44:48.838Z,94205
2022-09-27T14:45:57.514Z,94183
2022-09-27T14:47:07.209Z,94166
2022-09-27T14:48:16.954Z,94165
2022-09-27T14:49:24.603Z,94152
2022-09-27T14:50:33.339Z,94171